Metar Aviation Weather Data EHLW Leeuwarden Air Base

19°C Temp
14°C Dewpoint
73% Humidity
Temperature
3 KM/H
2 MPH
2 KTS
Calm
Due North

Wind Speed
Overcast
Conditions
Pressure 1012 (hPa) - 29.88 (in)
Visibility 6.2 (mi) - 10 (km)

Current Conditions
EHLW
Leeuwarden Air Base
Metar :EHLW 170455Z AUTO VRB02KT 9999 OVC160 19/14 Q1012 BLU
Tue 17th July 06:55 am

Leeuwarden Air Base
  Metar Aviation API Data Provided by https://www.checkwx.com/ PHP scripts by weather34.com ©2018